Time;durP1;ratioP1;P1;durP2;ratioP2;P2;SDS_P1;SDS_P2;PMS_P1;PMS_P2;Temp;Humidity;BMP_temperature;BMP_pressure;BME280_temperature;BME280_humidity;BME280_pressure;Samples;Min_cycle;Max_cycle;Signal;HPM_P1;HPM_P2
2023/07/22 00:02:24;;;;;;;17.23;15.67;;;23.80;99.90;;;;;;5087626;28;20732;-76
2023/07/22 00:04:50;;;;;;;18.40;16.60;;;23.70;99.90;;;;;;5085726;28;20551;-77
2023/07/22 00:07:16;;;;;;;18.30;16.43;;;23.70;99.90;;;;;;5087636;28;20209;-77
2023/07/22 00:09:43;;;;;;;18.37;16.57;;;23.70;99.90;;;;;;5087217;28;20768;-77
2023/07/22 00:12:09;;;;;;;18.20;16.60;;;23.60;99.90;;;;;;5085571;28;20438;-75
2023/07/22 00:14:38;;;;;;;18.13;16.17;;;23.60;99.90;;;;;;5086939;28;20446;-77
2023/07/22 00:17:04;;;;;;;16.80;15.40;;;23.60;99.90;;;;;;5086738;28;20443;-77
2023/07/22 00:19:29;;;;;;;16.50;15.03;;;23.50;99.90;;;;;;5087298;28;20412;-77
2023/07/22 00:21:55;;;;;;;17.80;16.10;;;23.50;99.90;;;;;;5085660;28;20524;-75
2023/07/22 00:24:22;;;;;;;16.90;15.40;;;23.50;99.90;;;;;;5086098;28;20717;-77
2023/07/22 00:26:49;;;;;;;18.20;16.50;;;23.50;99.90;;;;;;5085661;28;20201;-77
2023/07/22 00:29:15;;;;;;;17.73;15.93;;;23.50;99.90;;;;;;5086034;28;20409;-77
2023/07/22 00:31:41;;;;;;;19.23;16.27;;;23.40;99.90;;;;;;5087205;28;20903;-74
2023/07/22 00:34:07;;;;;;;17.40;15.77;;;23.40;99.90;;;;;;5085387;28;20559;-75
2023/07/22 00:36:32;;;;;;;17.33;15.63;;;23.40;99.90;;;;;;5087006;28;20176;-75
2023/07/22 00:38:58;;;;;;;17.37;15.87;;;23.40;99.90;;;;;;5086980;28;20213;-75
2023/07/22 00:41:24;;;;;;;18.23;16.47;;;23.30;99.90;;;;;;5085623;28;20193;-75
2023/07/22 00:43:49;;;;;;;17.30;14.70;;;23.30;99.90;;;;;;5086400;28;20196;-77
2023/07/22 00:46:15;;;;;;;18.87;17.00;;;23.30;99.90;;;;;;5086634;28;20204;-75
2023/07/22 00:48:42;;;;;;;22.00;17.23;;;23.20;99.90;;;;;;5086665;28;20196;-78
2023/07/22 00:51:07;;;;;;;18.07;16.47;;;23.20;99.90;;;;;;5086682;28;20179;-77
2023/07/22 00:53:33;;;;;;;16.77;15.00;;;23.20;99.90;;;;;;5086501;28;20438;-77
2023/07/22 00:55:59;;;;;;;18.00;16.00;;;23.10;99.90;;;;;;5086466;28;20199;-78
2023/07/22 00:58:25;;;;;;;18.03;16.50;;;23.10;99.90;;;;;;5086144;28;20237;-77
2023/07/22 01:00:50;;;;;;;15.73;14.37;;;23.10;99.90;;;;;;5086353;28;20173;-75
2023/07/22 01:03:17;;;;;;;16.30;14.70;;;23.10;99.90;;;;;;5086843;28;20365;-75
2023/07/22 01:05:43;;;;;;;16.40;14.90;;;23.00;99.90;;;;;;5086012;28;20247;-77
2023/07/22 01:08:08;;;;;;;17.83;16.17;;;23.00;99.90;;;;;;5084466;28;20549;-77
2023/07/22 01:10:34;;;;;;;16.93;15.33;;;23.00;99.90;;;;;;5086014;28;20397;-77
2023/07/22 01:13:00;;;;;;;16.50;14.80;;;22.90;99.90;;;;;;5085840;28;20228;-77
2023/07/22 01:15:26;;;;;;;16.80;15.20;;;22.90;99.90;;;;;;5085364;28;20168;-77
2023/07/22 01:17:52;;;;;;;16.77;15.27;;;22.90;99.90;;;;;;5084490;28;20224;-77
2023/07/22 01:20:19;;;;;;;18.83;15.07;;;22.80;99.90;;;;;;5085026;28;20951;-75
2023/07/22 01:22:54;;;;;;;17.93;15.90;;;22.80;99.90;;;;;;5084533;28;20499;-75
2023/07/22 01:25:24;;;;;;;19.03;17.23;;;22.80;99.90;;;;;;5086075;28;20404;-77
2023/07/22 01:27:52;;;;;;;19.93;16.90;;;22.70;99.90;;;;;;5086261;28;20543;-76
2023/07/22 01:30:19;;;;;;;18.60;16.70;;;22.70;99.90;;;;;;5085725;28;20928;-77
2023/07/22 01:32:46;;;;;;;19.83;18.00;;;22.60;99.90;;;;;;5084525;28;20448;-75
2023/07/22 01:35:12;;;;;;;17.90;16.20;;;22.70;99.90;;;;;;5085703;28;20465;-75
2023/07/22 01:37:37;;;;;;;18.03;16.33;;;22.60;99.90;;;;;;5084437;28;20516;-75
2023/07/22 01:40:11;;;;;;;19.00;17.07;;;22.60;99.90;;;;;;5083958;28;20279;-77
2023/07/22 01:42:41;;;;;;;19.53;17.73;;;22.60;99.90;;;;;;5085901;28;20200;-77
2023/07/22 01:45:07;;;;;;;18.10;16.50;;;22.60;99.90;;;;;;5084171;28;20410;-77
2023/07/22 01:47:36;;;;;;;18.20;16.53;;;22.50;99.90;;;;;;5085640;28;20447;-77
2023/07/22 01:50:09;;;;;;;19.87;17.97;;;22.50;99.90;;;;;;5084091;28;20983;-75
2023/07/22 01:52:35;;;;;;;18.93;17.00;;;22.60;99.90;;;;;;5085971;28;20432;-75
2023/07/22 01:55:05;;;;;;;19.03;17.00;;;22.50;99.90;;;;;;5085785;28;20920;-77
2023/07/22 01:57:31;;;;;;;18.27;16.67;;;22.50;99.90;;;;;;5083962;28;20516;-74
2023/07/22 01:59:56;;;;;;;18.13;16.43;;;22.50;99.90;;;;;;5085612;28;20423;-76
2023/07/22 02:02:22;;;;;;;18.23;16.40;;;22.40;99.90;;;;;;5085726;28;20729;-77
2023/07/22 02:04:48;;;;;;;18.37;16.77;;;22.40;99.90;;;;;;5085175;28;20342;-77
2023/07/22 02:07:14;;;;;;;20.63;17.50;;;22.40;99.90;;;;;;5084205;28;20208;-75
2023/07/22 02:09:40;;;;;;;17.20;15.60;;;22.40;99.90;;;;;;5085619;28;20680;-75
2023/07/22 02:12:07;;;;;;;18.03;16.40;;;22.40;99.90;;;;;;5083532;28;20452;-75
2023/07/22 02:14:33;;;;;;;18.57;16.87;;;22.40;99.90;;;;;;5083238;28;20525;-77
2023/07/22 02:16:59;;;;;;;18.27;16.47;;;22.40;99.90;;;;;;5084129;28;21033;-76
2023/07/22 02:19:25;;;;;;;18.43;16.73;;;22.40;99.90;;;;;;5086472;28;20442;-75
2023/07/22 02:21:50;;;;;;;19.27;17.17;;;22.30;99.90;;;;;;5087987;28;20444;-76
2023/07/22 02:24:16;;;;;;;18.30;16.40;;;22.30;99.90;;;;;;5088167;28;20203;-77
2023/07/22 02:26:41;;;;;;;20.00;18.13;;;22.20;99.90;;;;;;5088167;28;20177;-76
2023/07/22 02:29:07;;;;;;;18.57;16.77;;;22.20;99.90;;;;;;5089465;28;20180;-75
2023/07/22 02:31:33;;;;;;;17.33;15.80;;;22.20;99.90;;;;;;5087897;28;20309;-75
2023/07/22 02:33:59;;;;;;;18.83;17.10;;;22.10;99.90;;;;;;5089386;28;20466;-77
2023/07/22 02:36:25;;;;;;;17.30;15.70;;;22.10;99.90;;;;;;5089046;28;20172;-74
2023/07/22 02:38:50;;;;;;;17.60;15.50;;;22.00;99.90;;;;;;5087941;28;20219;-77
2023/07/22 02:41:16;;;;;;;17.00;15.50;;;22.00;99.90;;;;;;5089073;28;20165;-75
2023/07/22 02:43:43;;;;;;;17.07;15.43;;;21.90;99.90;;;;;;5087808;28;20484;-77
2023/07/22 02:46:09;;;;;;;18.33;16.53;;;21.90;99.90;;;;;;5087692;28;20173;-76
2023/07/22 02:48:34;;;;;;;16.93;15.43;;;21.90;99.90;;;;;;5089250;28;20444;-75
2023/07/22 02:51:07;;;;;;;17.53;15.80;;;21.90;99.90;;;;;;5089195;28;20385;-75
2023/07/22 02:53:36;;;;;;;18.33;16.53;;;21.90;99.90;;;;;;5089103;28;20200;-77
2023/07/22 02:56:02;;;;;;;16.20;14.70;;;21.90;99.90;;;;;;5088634;28;20435;-77
2023/07/22 02:58:28;;;;;;;18.03;15.87;;;21.90;99.90;;;;;;5088136;28;20675;-77
2023/07/22 03:00:53;;;;;;;16.57;15.17;;;21.90;99.90;;;;;;5088713;28;20788;-74
2023/07/22 03:03:19;;;;;;;18.23;16.50;;;21.90;99.90;;;;;;5088661;28;20720;-75
2023/07/22 03:05:45;;;;;;;18.53;16.87;;;21.80;99.90;;;;;;5087012;28;20173;-75
2023/07/22 03:08:11;;;;;;;16.43;14.80;;;21.80;99.90;;;;;;5087375;28;20283;-77
2023/07/22 03:10:37;;;;;;;18.00;16.20;;;21.80;99.90;;;;;;5088263;28;20492;-75
2023/07/22 03:13:03;;;;;;;17.00;15.40;;;21.80;99.90;;;;;;5086940;28;20200;-77
2023/07/22 03:15:29;;;;;;;16.33;14.83;;;21.80;99.90;;;;;;5086163;28;20173;-77
2023/07/22 03:17:55;;;;;;;18.67;15.30;;;21.80;99.90;;;;;;5087846;28;20488;-75
2023/07/22 03:20:24;;;;;;;17.00;15.50;;;21.70;99.90;;;;;;5088151;28;20408;-77
2023/07/22 03:22:49;;;;;;;16.00;14.60;;;21.70;99.90;;;;;;5086738;28;20487;-75
2023/07/22 03:25:16;;;;;;;17.03;15.43;;;21.70;99.90;;;;;;5088199;28;20905;-75
2023/07/22 03:27:43;;;;;;;16.93;15.33;;;21.70;99.90;;;;;;5088063;28;20200;-75
2023/07/22 03:30:11;;;;;;;18.57;16.70;;;21.70;99.90;;;;;;5087835;28;20917;-78
2023/07/22 03:32:37;;;;;;;18.93;15.70;;;21.60;99.90;;;;;;5087058;28;20444;-75
2023/07/22 03:35:03;;;;;;;17.03;15.33;;;21.60;99.90;;;;;;5086405;28;20447;-77
2023/07/22 03:37:29;;;;;;;17.20;15.73;;;21.60;99.90;;;;;;5086792;28;20301;-75
2023/07/22 03:39:55;;;;;;;18.83;16.90;;;21.60;99.90;;;;;;5088093;28;20405;-75
2023/07/22 03:42:20;;;;;;;17.63;15.93;;;21.60;99.90;;;;;;5087897;28;20200;-75
2023/07/22 03:44:46;;;;;;;18.43;16.53;;;21.60;99.90;;;;;;5087830;28;20180;-76
2023/07/22 03:47:12;;;;;;;16.90;15.33;;;21.60;99.90;;;;;;5087986;28;20204;-75
2023/07/22 03:49:37;;;;;;;17.57;15.97;;;21.60;99.90;;;;;;5086448;28;20176;-77
2023/07/22 03:52:03;;;;;;;16.57;14.97;;;21.60;99.90;;;;;;5086289;28;20814;-76
2023/07/22 03:54:29;;;;;;;16.43;14.80;;;21.60;99.90;;;;;;5086292;28;20722;-76
2023/07/22 03:56:55;;;;;;;16.87;15.37;;;21.60;99.90;;;;;;5087286;28;20463;-75
2023/07/22 03:59:39;;;;;;;17.43;15.83;;;21.60;99.90;;;;;;5085994;28;20676;-75
2023/07/22 04:02:05;;;;;;;16.77;15.20;;;21.60;99.90;;;;;;5087773;28;20331;-75
2023/07/22 04:04:31;;;;;;;17.10;15.30;;;21.60;99.90;;;;;;5086162;28;21004;-77
2023/07/22 04:06:57;;;;;;;17.53;15.77;;;21.60;99.90;;;;;;5084974;28;20215;-77
2023/07/22 04:09:22;;;;;;;17.23;15.70;;;21.60;99.90;;;;;;5083274;28;20431;-75
2023/07/22 04:11:48;;;;;;;16.07;14.50;;;21.60;99.90;;;;;;5084248;28;20196;-75
2023/07/22 04:14:14;;;;;;;17.40;15.70;;;21.60;99.90;;;;;;5084324;28;20661;-77
2023/07/22 04:16:40;;;;;;;17.23;15.53;;;21.60;99.90;;;;;;5086453;28;20629;-77
2023/07/22 04:19:06;;;;;;;17.40;15.70;;;21.60;99.90;;;;;;5087262;28;20216;-77
2023/07/22 04:21:31;;;;;;;17.23;15.50;;;21.60;99.90;;;;;;5086289;28;20175;-75
2023/07/22 04:23:57;;;;;;;16.00;14.40;;;21.60;99.90;;;;;;5087179;28;20432;-75
2023/07/22 04:26:23;;;;;;;17.00;15.40;;;21.60;99.90;;;;;;5085520;28;20169;-77
2023/07/22 04:28:48;;;;;;;17.30;15.50;;;21.60;99.90;;;;;;5085309;28;20204;-77
2023/07/22 04:31:14;;;;;;;17.30;15.70;;;21.70;99.90;;;;;;5082981;28;20172;-77
2023/07/22 04:33:41;;;;;;;17.07;15.47;;;21.70;99.90;;;;;;5084395;28;20388;-77
2023/07/22 04:36:07;;;;;;;18.73;17.03;;;21.70;99.90;;;;;;5082785;28;20176;-77
2023/07/22 04:38:33;;;;;;;17.17;15.67;;;21.70;99.90;;;;;;5084134;28;20836;-75
2023/07/22 04:41:01;;;;;;;16.40;15.00;;;21.80;99.90;;;;;;5084080;28;20273;-75
2023/07/22 04:43:27;;;;;;;16.97;15.20;;;21.80;99.90;;;;;;5083041;28;20517;-75
2023/07/22 04:45:52;;;;;;;14.97;13.47;;;21.90;99.90;;;;;;5085281;28;20452;-75
2023/07/22 04:48:20;;;;;;;15.83;14.43;;;21.90;99.90;;;;;;5087273;28;20195;-74
2023/07/22 04:50:46;;;;;;;14.93;13.67;;;22.00;99.90;;;;;;5085334;28;20538;-75
2023/07/22 04:53:15;;;;;;;15.60;14.20;;;22.00;99.90;;;;;;5085479;28;20455;-77
2023/07/22 04:55:41;;;;;;;15.90;13.70;;;22.00;99.90;;;;;;5085067;28;20816;-77
2023/07/22 04:58:09;;;;;;;15.67;14.27;;;22.00;99.90;;;;;;5086298;28;20841;-75
2023/07/22 05:00:34;;;;;;;18.63;14.23;;;22.00;99.90;;;;;;5085027;28;20424;-76
2023/07/22 05:03:00;;;;;;;16.80;15.17;;;22.00;99.90;;;;;;5085338;28;20465;-77
2023/07/22 05:05:26;;;;;;;15.97;14.37;;;22.00;99.90;;;;;;5086073;28;20172;-76
2023/07/22 05:07:52;;;;;;;15.33;14.03;;;22.00;99.90;;;;;;5086371;28;20192;-75
2023/07/22 05:10:19;;;;;;;15.00;13.70;;;22.10;99.90;;;;;;5086574;28;20349;-75
2023/07/22 05:12:45;;;;;;;15.77;14.47;;;22.10;99.90;;;;;;5085978;28;20462;-77
2023/07/22 05:15:12;;;;;;;15.47;13.97;;;22.10;99.90;;;;;;5084687;28;20404;-75
2023/07/22 05:17:38;;;;;;;15.20;13.90;;;22.20;99.90;;;;;;5084734;28;21031;-75
2023/07/22 05:20:06;;;;;;;15.73;14.33;;;22.20;99.90;;;;;;5083596;28;20409;-75
2023/07/22 05:22:32;;;;;;;15.43;13.90;;;22.30;99.90;;;;;;5084636;28;20689;-75
2023/07/22 05:24:59;;;;;;;16.10;14.70;;;22.30;99.90;;;;;;5086303;28;20393;-76
2023/07/22 05:27:25;;;;;;;15.17;13.77;;;22.30;99.90;;;;;;5085886;28;20435;-77
2023/07/22 05:29:50;;;;;;;14.47;13.20;;;22.30;99.90;;;;;;5085921;28;20403;-77
2023/07/22 05:32:16;;;;;;;15.20;13.87;;;22.40;99.90;;;;;;5086166;28;20433;-75
2023/07/22 05:34:42;;;;;;;14.07;12.70;;;22.40;99.90;;;;;;5084397;28;20207;-79
2023/07/22 05:37:08;;;;;;;14.73;13.10;;;22.40;99.90;;;;;;5084362;28;20196;-75
2023/07/22 05:39:33;;;;;;;13.10;12.10;;;22.50;99.90;;;;;;5085819;28;20622;-77
2023/07/22 05:41:59;;;;;;;13.17;11.87;;;22.50;99.90;;;;;;5084626;28;20210;-76
2023/07/22 05:44:24;;;;;;;13.70;12.40;;;22.50;99.90;;;;;;5085776;28;20168;-77
2023/07/22 05:46:50;;;;;;;13.00;11.80;;;22.60;99.90;;;;;;5085553;28;20192;-75
2023/07/22 05:49:16;;;;;;;13.17;12.07;;;22.60;99.90;;;;;;5086188;28;20692;-77
2023/07/22 05:51:41;;;;;;;14.43;13.10;;;22.60;99.90;;;;;;5085729;28;20169;-76
2023/07/22 05:54:07;;;;;;;15.20;13.60;;;22.70;99.90;;;;;;5084250;28;20193;-76
2023/07/22 05:56:33;;;;;;;14.17;12.97;;;22.70;99.90;;;;;;5084388;28;20185;-77
2023/07/22 05:58:58;;;;;;;13.50;12.30;;;22.70;99.90;;;;;;5084231;28;20242;-75
2023/07/22 06:01:24;;;;;;;13.13;11.93;;;22.80;99.90;;;;;;5084535;28;20454;-75
2023/07/22 06:03:50;;;;;;;14.50;13.20;;;22.80;99.90;;;;;;5083787;28;20287;-75
2023/07/22 06:06:16;;;;;;;14.23;12.93;;;22.90;99.90;;;;;;5084296;28;20409;-75
2023/07/22 06:08:42;;;;;;;13.50;12.30;;;22.90;99.90;;;;;;5085407;28;20450;-76
2023/07/22 06:11:08;;;;;;;12.50;11.50;;;23.00;99.90;;;;;;5085474;28;20172;-75
2023/07/22 06:13:33;;;;;;;13.43;12.13;;;23.10;99.90;;;;;;5084954;28;20196;-76
2023/07/22 06:15:59;;;;;;;12.40;11.17;;;23.10;99.90;;;;;;5085284;28;20180;-76
2023/07/22 06:18:24;;;;;;;11.90;10.70;;;23.10;99.90;;;;;;5083866;28;20250;-77
2023/07/22 06:20:50;;;;;;;11.90;10.90;;;23.20;99.90;;;;;;5083971;28;20459;-76
2023/07/22 06:23:16;;;;;;;12.90;11.70;;;23.20;99.90;;;;;;5084811;28;20593;-76
2023/07/22 06:25:42;;;;;;;12.57;11.27;;;23.30;99.90;;;;;;5084621;28;20425;-75
2023/07/22 06:28:08;;;;;;;11.83;10.80;;;23.30;99.90;;;;;;5085671;28;20220;-75
2023/07/22 06:30:34;;;;;;;11.77;10.70;;;23.40;99.90;;;;;;5085126;28;20679;-77
2023/07/22 06:33:00;;;;;;;11.50;10.50;;;23.40;99.90;;;;;;5085267;28;20469;-77
2023/07/22 06:35:26;;;;;;;11.90;10.47;;;23.50;99.90;;;;;;5084985;28;20180;-77
2023/07/22 06:37:51;;;;;;;12.07;10.97;;;23.50;99.90;;;;;;5085117;28;20281;-77
2023/07/22 06:40:17;;;;;;;11.47;10.40;;;23.60;99.90;;;;;;5079122;28;20291;-76
2023/07/22 06:42:43;;;;;;;10.13;9.23;;;23.70;99.90;;;;;;5063968;28;20498;-76
2023/07/22 06:45:09;;;;;;;10.73;9.73;;;23.70;99.90;;;;;;5064555;28;20703;-76
2023/07/22 06:47:36;;;;;;;11.60;10.60;;;23.80;99.90;;;;;;5063495;28;20293;-76
2023/07/22 06:50:04;;;;;;;12.47;11.37;;;23.90;99.90;;;;;;5063432;28;20412;-77
2023/07/22 06:52:30;;;;;;;10.63;9.63;;;24.00;99.90;;;;;;5065359;28;20562;-75
2023/07/22 06:54:56;;;;;;;10.80;9.70;;;24.00;99.90;;;;;;5063112;28;20423;-77
2023/07/22 06:57:21;;;;;;;11.87;10.77;;;24.10;99.90;;;;;;5064546;28;20474;-75
2023/07/22 06:59:47;;;;;;;10.80;9.80;;;24.10;99.90;;;;;;5062506;28;20187;-77
2023/07/22 07:02:12;;;;;;;11.90;10.70;;;24.10;99.90;;;;;;5061812;28;20206;-77
2023/07/22 07:04:38;;;;;;;11.27;10.33;;;24.20;99.90;;;;;;5061563;28;20175;-76
2023/07/22 07:07:04;;;;;;;11.97;10.87;;;24.30;99.90;;;;;;5066819;28;20219;-76
2023/07/22 07:09:30;;;;;;;12.10;11.07;;;24.30;99.90;;;;;;5066659;28;20248;-76
2023/07/22 07:11:58;;;;;;;10.73;9.73;;;24.40;99.90;;;;;;5066371;28;20192;-76
2023/07/22 07:14:24;;;;;;;13.30;11.07;;;24.40;99.90;;;;;;5066579;28;20175;-77
2023/07/22 07:16:50;;;;;;;11.33;10.30;;;24.50;99.90;;;;;;5067007;28;20469;-78
2023/07/22 07:19:16;;;;;;;11.73;10.63;;;24.60;99.90;;;;;;5068612;28;20783;-76
2023/07/22 07:21:41;;;;;;;11.50;10.50;;;24.70;99.90;;;;;;5068128;28;20176;-77
2023/07/22 07:24:07;;;;;;;11.93;10.83;;;24.70;99.90;;;;;;5066602;28;20188;-75
2023/07/22 07:26:33;;;;;;;13.20;9.80;;;24.70;99.90;;;;;;5066027;28;20695;-77
2023/07/22 07:28:59;;;;;;;11.53;10.43;;;24.70;99.90;;;;;;5066248;28;20444;-77
2023/07/22 07:31:24;;;;;;;10.23;9.23;;;24.80;99.90;;;;;;5066686;28;20521;-77
2023/07/22 07:33:51;;;;;;;11.17;9.93;;;24.80;99.90;;;;;;5066476;28;20595;-75
2023/07/22 07:36:17;;;;;;;9.70;8.80;;;24.90;99.90;;;;;;5066783;28;20258;-77
2023/07/22 07:38:42;;;;;;;10.20;9.30;;;25.00;99.90;;;;;;5068222;28;20637;-76
2023/07/22 07:41:08;;;;;;;10.63;9.57;;;25.10;99.90;;;;;;5068243;28;20401;-77
2023/07/22 07:43:35;;;;;;;9.83;9.03;;;25.20;99.90;;;;;;5066446;28;20240;-78
2023/07/22 07:46:28;;;;;;;10.47;9.10;;;25.30;99.90;;;;;;5066670;28;20595;-77
2023/07/22 07:48:56;;;;;;;10.40;9.50;;;25.40;99.90;;;;;;5066470;28;20560;-76
2023/07/22 07:51:24;;;;;;;9.93;8.90;;;25.40;99.90;;;;;;5067581;28;20889;-78
2023/07/22 07:53:50;;;;;;;9.57;8.70;;;25.50;99.90;;;;;;5067650;28;20434;-76
2023/07/22 07:56:17;;;;;;;8.97;8.00;;;25.50;99.90;;;;;;5067657;28;20715;-76
2023/07/22 07:58:44;;;;;;;9.77;8.87;;;25.40;99.90;;;;;;5067225;28;20817;-78
2023/07/22 08:01:10;;;;;;;11.17;9.10;;;25.50;99.90;;;;;;5066190;28;20869;-77
2023/07/22 08:03:37;;;;;;;9.33;8.43;;;25.50;99.90;;;;;;5066108;28;20528;-76
2023/07/22 08:06:03;;;;;;;9.27;8.37;;;25.60;99.90;;;;;;5067158;28;20169;-75
2023/07/22 08:08:29;;;;;;;8.77;7.90;;;25.70;99.90;;;;;;5066058;28;20517;-76
2023/07/22 08:10:59;;;;;;;10.10;9.10;;;25.80;99.90;;;;;;5066024;28;20698;-77
2023/07/22 08:13:24;;;;;;;8.30;7.63;;;25.80;99.90;;;;;;5066757;28;20449;-76
2023/07/22 08:15:51;;;;;;;9.50;8.70;;;25.90;99.90;;;;;;5065373;28;20418;-77
2023/07/22 08:18:16;;;;;;;10.10;9.20;;;26.00;99.90;;;;;;5067138;28;20271;-78
2023/07/22 08:20:42;;;;;;;10.87;9.87;;;26.10;99.90;;;;;;5067158;28;20930;-77
2023/07/22 08:23:08;;;;;;;11.00;8.40;;;26.20;99.90;;;;;;5066853;28;20707;-78
2023/07/22 08:25:33;;;;;;;8.83;8.00;;;26.30;99.90;;;;;;5066564;28;20653;-78
2023/07/22 08:27:59;;;;;;;9.53;8.60;;;26.40;99.90;;;;;;5066859;28;20227;-76
2023/07/22 08:30:25;;;;;;;9.23;8.43;;;26.50;99.90;;;;;;5065422;28;20174;-78
2023/07/22 08:32:51;;;;;;;9.60;8.63;;;26.60;99.90;;;;;;5066851;28;20229;-77
2023/07/22 08:35:17;;;;;;;10.87;8.83;;;26.60;99.90;;;;;;5065142;28;20444;-77
2023/07/22 08:37:43;;;;;;;9.53;8.63;;;26.80;99.90;;;;;;5066812;28;20433;-76
2023/07/22 08:40:10;;;;;;;10.43;9.43;;;26.80;99.90;;;;;;5065250;28;20414;-77
2023/07/22 08:42:37;;;;;;;9.00;8.30;;;26.80;99.90;;;;;;5066842;28;20258;-76
2023/07/22 08:45:06;;;;;;;10.70;9.60;;;26.80;99.90;;;;;;5065074;28;20410;-76
2023/07/22 08:47:32;;;;;;;9.83;8.93;;;26.90;99.90;;;;;;5066487;28;21026;-76
2023/07/22 08:50:01;;;;;;;9.60;8.60;;;27.00;99.90;;;;;;5066405;28;20413;-78
2023/07/22 08:52:27;;;;;;;9.47;8.67;;;27.10;99.90;;;;;;5066354;28;20537;-78
2023/07/22 08:54:54;;;;;;;8.40;7.60;;;27.10;99.90;;;;;;5066242;28;20533;-77
2023/07/22 08:57:21;;;;;;;8.67;7.97;;;27.10;99.90;;;;;;5064691;28;20586;-76
2023/07/22 08:59:47;;;;;;;8.80;8.10;;;27.20;99.90;;;;;;5066315;28;20579;-78
2023/07/22 09:02:14;;;;;;;8.47;7.60;;;27.30;99.90;;;;;;5066425;28;20930;-76
2023/07/22 09:04:43;;;;;;;7.50;6.90;;;27.40;99.90;;;;;;5065851;28;20402;-76
2023/07/22 09:07:11;;;;;;;7.57;6.87;;;27.40;99.90;;;;;;5064835;28;20455;-76
2023/07/22 09:09:37;;;;;;;9.03;7.83;;;27.40;99.90;;;;;;5064514;28;20423;-78
2023/07/22 09:12:06;;;;;;;7.90;7.20;;;27.50;99.90;;;;;;5064578;28;20444;-77
2023/07/22 09:14:34;;;;;;;7.27;6.60;;;27.50;99.90;;;;;;5065771;28;20434;-77
2023/07/22 09:16:59;;;;;;;7.23;6.50;;;27.50;99.90;;;;;;5064104;28;20439;-77
2023/07/22 09:19:26;;;;;;;7.90;7.23;;;27.60;99.90;;;;;;5065868;28;20465;-77
2023/07/22 09:21:52;;;;;;;6.87;6.37;;;27.60;99.90;;;;;;5065503;28;20185;-77
2023/07/22 09:24:21;;;;;;;7.13;6.40;;;27.70;99.90;;;;;;5065712;28;20407;-76
2023/07/22 09:26:47;;;;;;;7.60;6.90;;;27.70;99.90;;;;;;5063738;28;20288;-76
2023/07/22 09:29:12;;;;;;;8.00;7.33;;;27.80;99.90;;;;;;5065422;28;20981;-76
2023/07/22 09:31:49;;;;;;;8.80;7.30;;;27.80;99.90;;;;;;5064768;28;20176;-75
2023/07/22 09:34:15;;;;;;;6.97;6.33;;;27.80;99.90;;;;;;5065657;28;20165;-78
2023/07/22 09:37:03;;;;;;;8.03;7.37;;;27.80;99.90;;;;;;5066236;28;20403;-77
2023/07/22 09:39:30;;;;;;;9.17;7.17;;;27.90;99.90;;;;;;5064272;28;20212;-76
2023/07/22 09:41:55;;;;;;;7.80;7.10;;;27.90;99.90;;;;;;5065792;28;20429;-76
2023/07/22 09:44:22;;;;;;;8.27;7.37;;;28.00;99.90;;;;;;5065677;28;20426;-77
2023/07/22 09:46:49;;;;;;;8.43;7.50;;;28.10;99.90;;;;;;5064408;28;20437;-78
2023/07/22 09:49:17;;;;;;;7.67;6.77;;;28.20;99.90;;;;;;5065478;28;20405;-76
2023/07/22 09:51:42;;;;;;;8.60;6.97;;;28.30;99.90;;;;;;5065563;28;20547;-76
2023/07/22 09:54:08;;;;;;;7.80;7.07;;;28.30;99.90;;;;;;5065507;28;20426;-78
2023/07/22 09:56:45;;;;;;;8.10;7.40;;;28.40;99.90;;;;;;5065493;28;20175;-76
2023/07/22 09:59:11;;;;;;;7.23;6.63;;;28.50;99.90;;;;;;5065117;28;20646;-76
2023/07/22 10:01:41;;;;;;;7.27;6.60;;;28.60;99.90;;;;;;5065297;28;20411;-78
2023/07/22 10:04:07;;;;;;;6.93;5.93;;;28.60;99.90;;;;;;5063956;28;20417;-78
2023/07/22 10:06:33;;;;;;;7.10;5.90;;;28.70;99.90;;;;;;5065406;28;20403;-78
2023/07/22 10:09:07;;;;;;;6.43;5.90;;;28.80;99.90;;;;;;5063910;28;20421;-78
2023/07/22 10:11:34;;;;;;;6.80;6.00;;;28.80;99.90;;;;;;5063871;28;20451;-77
2023/07/22 10:14:02;;;;;;;7.13;6.50;;;28.90;99.90;;;;;;5065303;28;20986;-76
2023/07/22 10:16:28;;;;;;;7.10;6.50;;;28.90;99.90;;;;;;5065175;28;20899;-78
2023/07/22 10:18:55;;;;;;;5.97;5.50;;;28.90;99.90;;;;;;5063779;28;20992;-76
2023/07/22 10:21:21;;;;;;;6.20;5.60;;;28.90;99.90;;;;;;5062454;28;20492;-78
2023/07/22 10:23:48;;;;;;;5.57;5.10;;;28.90;99.90;;;;;;5062276;28;20483;-76
2023/07/22 10:26:17;;;;;;;6.57;5.97;;;28.90;99.90;;;;;;5063635;28;20405;-77
2023/07/22 10:28:45;;;;;;;6.10;5.60;;;29.00;99.90;;;;;;5061411;28;20463;-78
2023/07/22 10:31:10;;;;;;;6.37;5.87;;;29.00;99.90;;;;;;5063431;28;20430;-78
2023/07/22 10:33:36;;;;;;;5.90;5.40;;;29.10;99.90;;;;;;5063351;28;20445;-76
2023/07/22 10:36:06;;;;;;;6.00;5.50;;;29.10;99.90;;;;;;5064077;28;20242;-78
2023/07/22 10:38:32;;;;;;;6.27;5.50;;;29.10;99.90;;;;;;5063774;28;20792;-78
2023/07/22 10:40:58;;;;;;;5.80;5.30;;;29.20;99.90;;;;;;5067073;28;20899;-77
2023/07/22 10:43:27;;;;;;;5.93;5.43;;;29.30;99.90;;;;;;5067484;28;20758;-77
2023/07/22 10:45:55;;;;;;;6.67;6.07;;;29.30;99.90;;;;;;5068708;28;20412;-76
2023/07/22 10:48:25;;;;;;;6.40;5.80;;;29.30;99.90;;;;;;5068780;28;20446;-76
2023/07/22 10:50:52;;;;;;;6.80;6.13;;;29.40;99.90;;;;;;5068771;28;20411;-78
2023/07/22 10:53:24;;;;;;;5.90;5.40;;;29.40;99.90;;;;;;5067736;28;20461;-76
2023/07/22 10:56:02;;;;;;;5.67;5.27;;;29.40;99.90;;;;;;5067347;28;20945;-77
2023/07/22 10:58:30;;;;;;;6.30;5.80;;;29.50;99.90;;;;;;5068085;28;20837;-77
2023/07/22 11:00:56;;;;;;;6.10;5.60;;;29.50;99.90;;;;;;5066998;28;20416;-78
2023/07/22 11:03:22;;;;;;;7.03;5.67;;;29.50;99.90;;;;;;5068399;28;20451;-76
2023/07/22 11:05:53;;;;;;;6.03;5.53;;;29.60;99.90;;;;;;5068625;28;20217;-76
2023/07/22 11:08:39;;;;;;;6.77;6.17;;;29.60;99.90;;;;;;5067151;28;20200;-76
2023/07/22 11:11:05;;;;;;;6.90;6.20;;;29.60;99.90;;;;;;5067056;28;20998;-76
2023/07/22 11:13:37;;;;;;;6.63;6.00;;;29.70;99.90;;;;;;5068319;28;20525;-77
2023/07/22 11:16:03;;;;;;;6.37;5.87;;;29.70;99.90;;;;;;5068188;28;20420;-77
2023/07/22 11:18:39;;;;;;;6.50;5.93;;;29.70;99.90;;;;;;5067921;28;20544;-76
2023/07/22 11:21:12;;;;;;;6.60;6.00;;;29.70;99.90;;;;;;5066668;28;20474;-76
2023/07/22 11:23:37;;;;;;;6.87;6.27;;;29.70;99.90;;;;;;5066620;28;20843;-77
2023/07/22 11:26:04;;;;;;;5.47;5.07;;;29.70;99.90;;;;;;5068020;28;20407;-76
2023/07/22 11:28:30;;;;;;;6.30;5.60;;;29.70;99.90;;;;;;5066832;28;20215;-76
2023/07/22 11:30:56;;;;;;;6.33;5.83;;;29.70;99.90;;;;;;5066074;28;20487;-76
2023/07/22 11:33:22;;;;;;;7.23;6.07;;;29.80;99.90;;;;;;5066339;28;20549;-76
2023/07/22 11:35:47;;;;;;;6.60;6.00;;;29.90;99.90;;;;;;5067827;28;20184;-76
2023/07/22 11:38:13;;;;;;;5.87;5.40;;;29.90;99.90;;;;;;5066579;28;20829;-76
2023/07/22 11:40:39;;;;;;;5.67;5.27;;;29.90;99.90;;;;;;5067739;28;20210;-77
2023/07/22 11:43:05;;;;;;;5.63;5.10;;;29.90;99.90;;;;;;5066407;28;20870;-77
2023/07/22 11:45:32;;;;;;;6.20;5.70;;;30.00;99.90;;;;;;5067815;28;20185;-77
2023/07/22 11:47:57;;;;;;;6.43;4.63;;;30.00;99.90;;;;;;5067985;28;20536;-78
2023/07/22 11:50:35;;;;;;;6.73;4.47;;;30.00;99.90;;;;;;5067376;28;20938;-78
2023/07/22 11:53:01;;;;;;;4.93;4.53;;;30.00;99.70;;;;;;5067755;28;20194;-78
2023/07/22 11:55:27;;;;;;;5.40;4.93;;;30.00;99.90;;;;;;5066139;28;20558;-77
2023/07/22 11:57:54;;;;;;;6.07;5.57;;;30.10;99.90;;;;;;5065860;28;20240;-78
2023/07/22 12:00:20;;;;;;;5.30;4.90;;;30.10;99.90;;;;;;5065894;28;20524;-78
2023/07/22 12:02:46;;;;;;;8.30;5.13;;;30.10;99.90;;;;;;5067433;28;20437;-78
2023/07/22 12:05:20;;;;;;;6.37;5.80;;;30.10;99.90;;;;;;5067160;28;20952;-78
2023/07/22 12:07:46;;;;;;;5.50;4.87;;;30.20;99.90;;;;;;5067444;28;20954;-76
2023/07/22 12:10:12;;;;;;;5.73;5.23;;;30.20;99.90;;;;;;5065933;28;20446;-78
2023/07/22 12:12:47;;;;;;;5.00;4.60;;;30.30;99.90;;;;;;5067128;28;20676;-78
2023/07/22 12:15:17;;;;;;;5.00;4.60;;;30.30;99.10;;;;;;5067218;28;20377;-76
2023/07/22 12:17:51;;;;;;;5.50;5.10;;;30.20;98.90;;;;;;5065352;28;20464;-78
2023/07/22 12:20:18;;;;;;;5.57;5.07;;;30.30;98.90;;;;;;5065839;28;20431;-77
2023/07/22 12:22:43;;;;;;;5.50;5.00;;;30.30;99.10;;;;;;5067389;28;20779;-78
2023/07/22 12:25:09;;;;;;;5.03;4.50;;;30.30;98.40;;;;;;5066795;28;20405;-78
2023/07/22 12:27:37;;;;;;;5.03;4.63;;;30.30;98.40;;;;;;5067297;28;20253;-78
2023/07/22 12:30:03;;;;;;;5.10;4.60;;;30.40;98.60;;;;;;5066687;28;20381;-78
2023/07/22 12:32:28;;;;;;;4.97;4.57;;;30.40;99.00;;;;;;5064226;28;20469;-77
2023/07/22 12:34:54;;;;;;;5.13;4.70;;;30.50;99.00;;;;;;5066455;28;20770;-78